createdAt,value
2023-01-02T00:03:48.074Z,48.97
2023-01-02T00:13:48.172Z,47.63
2023-01-02T00:23:48.478Z,49.93
2023-01-02T00:33:48.518Z,47.94
2023-01-02T00:43:48.837Z,47.96
2023-01-02T00:53:48.859Z,47.86
2023-01-02T01:03:50.131Z,48.91
2023-01-02T01:13:49.164Z,49.11
2023-01-02T01:23:49.479Z,47.88
2023-01-02T01:33:49.555Z,49.55
2023-01-02T01:43:49.643Z,50.38
2023-01-02T01:53:49.662Z,49.24
2023-01-02T02:03:49.916Z,48.71
2023-01-02T02:13:50.137Z,49.44
2023-01-02T02:23:50.386Z,48.82
2023-01-02T02:33:50.428Z,48.61
2023-01-02T02:43:50.757Z,49.87
2023-01-02T02:53:51.262Z,49.77
2023-01-02T03:03:58.111Z,49.47
2023-01-02T03:13:51.346Z,48.11
2023-01-02T03:23:51.636Z,49.39
2023-01-02T03:33:51.730Z,49.39
2023-01-02T03:43:56.750Z,47.87
2023-01-02T03:53:53.145Z,48.58
2023-01-02T04:03:53.485Z,48.40
2023-01-02T04:13:52.518Z,47.95
2023-01-02T04:23:55.879Z,47.14
2023-01-02T04:33:52.900Z,47.67
2023-01-02T04:43:53.311Z,46.88
2023-01-02T04:53:53.342Z,46.25
2023-01-02T05:03:53.729Z,47.16
2023-01-02T05:13:53.795Z,46.78
2023-01-02T05:23:54.138Z,46.98
2023-01-02T05:33:54.274Z,46.27
2023-01-02T05:43:56.336Z,46.19
2023-01-02T05:53:54.369Z,46.11
2023-01-02T06:03:54.710Z,46.09
2023-01-02T06:13:54.813Z,46.19
2023-01-02T06:23:54.943Z,46.11
2023-01-02T06:33:54.990Z,46.64
2023-01-02T06:43:57.256Z,45.78
2023-01-02T06:53:55.299Z,46.13
2023-01-02T07:03:55.608Z,46.23
2023-01-02T07:13:55.634Z,45.70
2023-01-02T07:23:55.944Z,45.80
2023-01-02T07:33:55.989Z,45.84
2023-01-02T07:43:56.348Z,46.64
2023-01-02T07:53:56.394Z,47.14
2023-01-02T08:03:56.706Z,47.02
2023-01-02T08:13:56.735Z,47.41
2023-01-02T08:23:57.256Z,46.43
2023-01-02T08:33:57.084Z,44.76
2023-01-02T08:43:57.421Z,45.47
2023-01-02T08:53:57.446Z,45.82
2023-01-02T09:03:57.704Z,46.02
2023-01-02T09:13:57.938Z,54.36
2023-01-02T09:23:58.303Z,63.67
2023-01-02T09:33:58.337Z,66.36
2023-01-02T09:43:58.744Z,61.22
2023-01-02T09:53:58.791Z,61.85
2023-01-02T10:03:59.124Z,55.66
2023-01-02T10:24:00.443Z,62.10
2023-01-02T10:33:59.765Z,64.32
2023-01-02T10:43:59.792Z,64.94
2023-01-02T10:53:59.931Z,63.41
2023-01-02T11:04:00.174Z,62.54
2023-01-02T11:14:00.500Z,60.47
2023-01-02T11:24:00.534Z,62.23
2023-01-02T11:34:00.893Z,62.54
2023-01-02T11:44:00.909Z,62.94
2023-01-02T11:54:01.250Z,62.07
2023-01-02T12:04:01.326Z,62.56
2023-01-02T12:14:01.424Z,63.35
2023-01-02T12:24:01.646Z,60.16
2023-01-02T12:34:01.884Z,60.18
2023-01-02T12:44:02.122Z,59.37
2023-01-02T12:54:19.937Z,58.94
2023-01-02T13:04:03.528Z,59.21
2023-01-02T13:14:02.838Z,57.43
2023-01-02T13:24:02.857Z,56.34
2023-01-02T13:34:03.210Z,59.41
2023-01-02T13:44:03.268Z,61.95
2023-01-02T13:54:03.583Z,63.43
2023-01-02T14:04:03.620Z,64.79
2023-01-02T14:14:03.858Z,64.31
2023-01-02T14:24:17.631Z,63.39
2023-01-02T14:34:05.194Z,64.44
2023-01-02T14:44:04.426Z,65.86
2023-01-02T14:54:04.665Z,66.10
2023-01-02T15:04:05.007Z,68.71
2023-01-02T15:14:06.451Z,66.80
2023-01-02T15:24:08.517Z,67.82
2023-01-02T15:34:05.356Z,69.08
2023-01-02T15:44:05.601Z,70.88
2023-01-02T15:54:05.849Z,71.09
2023-01-02T16:04:06.007Z,70.57
2023-01-02T16:14:06.041Z,70.78
2023-01-02T16:24:06.347Z,71.09
2023-01-02T16:34:06.377Z,70.06
2023-01-02T16:44:06.720Z,68.80
2023-01-02T16:54:06.777Z,68.19
2023-01-02T17:04:07.088Z,65.51
2023-01-02T17:14:07.138Z,65.20
2023-01-02T17:24:07.465Z,66.46
2023-01-02T17:34:07.511Z,65.95
2023-01-02T17:44:07.831Z,64.93
2023-01-02T17:54:07.870Z,65.64
2023-01-02T18:04:08.199Z,63.78
2023-01-02T18:14:08.221Z,63.41
2023-01-02T18:24:08.657Z,65.51
2023-01-02T18:34:08.633Z,62.93
2023-01-02T18:44:09.725Z,62.08
2023-01-02T18:54:09.037Z,63.75
2023-01-02T19:04:22.067Z,64.79
2023-01-02T19:14:10.028Z,61.98
2023-01-02T19:24:09.518Z,62.11
2023-01-02T19:34:09.429Z,64.69
2023-01-02T19:44:09.755Z,64.93
2023-01-02T19:54:09.979Z,66.49
2023-01-02T20:04:10.171Z,67.44
2023-01-02T20:14:10.090Z,66.80
2023-01-02T20:24:10.374Z,68.05
2023-01-02T20:34:10.635Z,66.80
2023-01-02T20:44:10.922Z,68.29
2023-01-02T20:54:10.663Z,69.42
2023-01-02T21:04:15.006Z,69.72
2023-01-02T21:14:11.032Z,69.79
2023-01-02T21:24:11.297Z,68.94
2023-01-02T21:34:11.564Z,68.94
2023-01-02T21:44:11.864Z,69.65
2023-01-02T21:54:11.915Z,70.20
2023-01-02T22:04:12.235Z,70.71
2023-01-02T22:14:12.331Z,73.61
2023-01-02T22:24:13.419Z,73.50
2023-01-02T22:34:12.466Z,72.00
2023-01-02T22:44:12.767Z,73.03
2023-01-02T22:54:12.815Z,71.15
2023-01-02T23:04:13.163Z,73.03
2023-01-02T23:14:13.222Z,74.59
2023-01-02T23:24:15.503Z,75.00
2023-01-02T23:34:13.738Z,75.51
2023-01-02T23:44:14.081Z,76.67
2023-01-02T23:54:14.149Z,77.94
